sensor_id;sensor_type;location;lat;lon;timestamp;P1;durP1;ratioP1;P2;durP2;ratioP2
75135;SDS011;63707;52.212;9.540;2023-03-02T00:00:05;11.07;;;5.32;;
75135;SDS011;63707;52.212;9.540;2023-03-02T00:02:39;13.55;;;5.88;;
75135;SDS011;63707;52.212;9.540;2023-03-02T00:05:06;9.52;;;4.68;;
75135;SDS011;63707;52.212;9.540;2023-03-02T00:07:34;11.18;;;5.20;;
75135;SDS011;63707;52.212;9.540;2023-03-02T00:10:01;12.50;;;4.60;;
75135;SDS011;63707;52.212;9.540;2023-03-02T00:12:28;11.10;;;4.57;;
75135;SDS011;63707;52.212;9.540;2023-03-02T00:14:56;11.05;;;4.80;;
75135;SDS011;63707;52.212;9.540;2023-03-02T00:17:21;10.52;;;5.00;;
75135;SDS011;63707;52.212;9.540;2023-03-02T00:19:53;11.80;;;4.85;;
75135;SDS011;63707;52.212;9.540;2023-03-02T00:22:19;13.25;;;5.75;;
75135;SDS011;63707;52.212;9.540;2023-03-02T00:24:45;10.32;;;4.63;;
75135;SDS011;63707;52.212;9.540;2023-03-02T00:27:10;10.45;;;4.75;;
75135;SDS011;63707;52.212;9.540;2023-03-02T00:29:36;10.73;;;4.78;;
75135;SDS011;63707;52.212;9.540;2023-03-02T00:32:01;11.43;;;4.60;;
75135;SDS011;63707;52.212;9.540;2023-03-02T00:34:28;8.73;;;4.32;;
75135;SDS011;63707;52.212;9.540;2023-03-02T00:36:56;10.90;;;4.40;;
75135;SDS011;63707;52.212;9.540;2023-03-02T00:39:23;8.90;;;4.00;;
75135;SDS011;63707;52.212;9.540;2023-03-02T00:41:48;12.82;;;4.57;;
75135;SDS011;63707;52.212;9.540;2023-03-02T00:44:14;11.77;;;4.03;;
75135;SDS011;63707;52.212;9.540;2023-03-02T00:46:41;10.13;;;4.45;;
75135;SDS011;63707;52.212;9.540;2023-03-02T00:49:07;9.90;;;4.13;;
75135;SDS011;63707;52.212;9.540;2023-03-02T00:51:33;11.20;;;4.65;;
75135;SDS011;63707;52.212;9.540;2023-03-02T00:53:58;11.80;;;4.25;;
75135;SDS011;63707;52.212;9.540;2023-03-02T00:56:28;10.27;;;4.43;;
75135;SDS011;63707;52.212;9.540;2023-03-02T00:58:53;12.02;;;5.25;;
75135;SDS011;63707;52.212;9.540;2023-03-02T01:01:19;15.27;;;6.05;;
75135;SDS011;63707;52.212;9.540;2023-03-02T01:03:45;15.73;;;6.35;;
75135;SDS011;63707;52.212;9.540;2023-03-02T01:06:14;15.00;;;6.30;;
75135;SDS011;63707;52.212;9.540;2023-03-02T01:08:42;12.82;;;6.40;;
75135;SDS011;63707;52.212;9.540;2023-03-02T01:11:11;18.40;;;7.50;;
75135;SDS011;63707;52.212;9.540;2023-03-02T01:13:39;16.50;;;7.22;;
75135;SDS011;63707;52.212;9.540;2023-03-02T01:16:04;15.38;;;6.85;;
75135;SDS011;63707;52.212;9.540;2023-03-02T01:18:30;13.27;;;6.75;;
75135;SDS011;63707;52.212;9.540;2023-03-02T01:21:00;15.00;;;7.15;;
75135;SDS011;63707;52.212;9.540;2023-03-02T01:23:26;21.05;;;7.50;;
75135;SDS011;63707;52.212;9.540;2023-03-02T01:25:52;16.63;;;6.68;;
75135;SDS011;63707;52.212;9.540;2023-03-02T01:28:17;13.70;;;6.80;;
75135;SDS011;63707;52.212;9.540;2023-03-02T01:30:44;15.13;;;6.75;;
75135;SDS011;63707;52.212;9.540;2023-03-02T01:33:11;21.15;;;8.15;;
75135;SDS011;63707;52.212;9.540;2023-03-02T01:35:36;18.20;;;7.07;;
75135;SDS011;63707;52.212;9.540;2023-03-02T01:38:02;15.02;;;6.72;;
75135;SDS011;63707;52.212;9.540;2023-03-02T01:40:27;16.65;;;7.00;;
75135;SDS011;63707;52.212;9.540;2023-03-02T01:42:55;20.13;;;8.45;;
75135;SDS011;63707;52.212;9.540;2023-03-02T01:45:43;15.85;;;7.65;;
75135;SDS011;63707;52.212;9.540;2023-03-02T01:48:13;14.55;;;7.18;;
75135;SDS011;63707;52.212;9.540;2023-03-02T01:50:42;19.15;;;8.18;;
75135;SDS011;63707;52.212;9.540;2023-03-02T01:53:09;17.00;;;6.90;;
75135;SDS011;63707;52.212;9.540;2023-03-02T01:55:36;17.10;;;7.65;;
75135;SDS011;63707;52.212;9.540;2023-03-02T01:58:03;15.68;;;7.10;;
75135;SDS011;63707;52.212;9.540;2023-03-02T02:00:32;20.70;;;7.35;;
75135;SDS011;63707;52.212;9.540;2023-03-02T02:03:03;21.30;;;8.27;;
75135;SDS011;63707;52.212;9.540;2023-03-02T02:05:33;18.20;;;7.20;;
75135;SDS011;63707;52.212;9.540;2023-03-02T02:08:00;15.55;;;7.35;;
75135;SDS011;63707;52.212;9.540;2023-03-02T02:10:26;16.77;;;7.10;;
75135;SDS011;63707;52.212;9.540;2023-03-02T02:12:51;15.07;;;7.30;;
75135;SDS011;63707;52.212;9.540;2023-03-02T02:15:17;19.27;;;7.15;;
75135;SDS011;63707;52.212;9.540;2023-03-02T02:17:42;22.23;;;7.65;;
75135;SDS011;63707;52.212;9.540;2023-03-02T02:20:12;18.60;;;8.02;;
75135;SDS011;63707;52.212;9.540;2023-03-02T02:22:49;17.63;;;7.65;;
75135;SDS011;63707;52.212;9.540;2023-03-02T02:25:27;21.30;;;8.60;;
75135;SDS011;63707;52.212;9.540;2023-03-02T02:28:02;14.98;;;7.30;;
75135;SDS011;63707;52.212;9.540;2023-03-02T02:30:33;18.08;;;6.90;;
75135;SDS011;63707;52.212;9.540;2023-03-02T02:33:00;20.85;;;8.07;;
75135;SDS011;63707;52.212;9.540;2023-03-02T02:35:26;16.20;;;7.90;;
75135;SDS011;63707;52.212;9.540;2023-03-02T02:37:54;16.00;;;7.78;;
75135;SDS011;63707;52.212;9.540;2023-03-02T02:40:37;13.65;;;6.80;;
75135;SDS011;63707;52.212;9.540;2023-03-02T02:43:10;14.82;;;7.43;;
75135;SDS011;63707;52.212;9.540;2023-03-02T02:45:38;15.63;;;7.03;;
75135;SDS011;63707;52.212;9.540;2023-03-02T02:48:03;15.15;;;7.30;;
75135;SDS011;63707;52.212;9.540;2023-03-02T02:50:33;16.13;;;7.03;;
75135;SDS011;63707;52.212;9.540;2023-03-02T02:52:59;17.55;;;7.07;;
75135;SDS011;63707;52.212;9.540;2023-03-02T02:55:29;17.15;;;7.13;;
75135;SDS011;63707;52.212;9.540;2023-03-02T02:57:56;17.35;;;6.88;;
75135;SDS011;63707;52.212;9.540;2023-03-02T03:00:26;15.00;;;7.05;;
75135;SDS011;63707;52.212;9.540;2023-03-02T03:02:52;14.95;;;7.07;;
75135;SDS011;63707;52.212;9.540;2023-03-02T03:05:24;15.88;;;7.47;;
75135;SDS011;63707;52.212;9.540;2023-03-02T03:07:50;18.88;;;6.93;;
75135;SDS011;63707;52.212;9.540;2023-03-02T03:10:17;15.63;;;7.15;;
75135;SDS011;63707;52.212;9.540;2023-03-02T03:12:46;18.75;;;7.63;;
75135;SDS011;63707;52.212;9.540;2023-03-02T03:15:11;17.45;;;6.88;;
75135;SDS011;63707;52.212;9.540;2023-03-02T03:17:40;15.30;;;7.53;;
75135;SDS011;63707;52.212;9.540;2023-03-02T03:20:06;18.50;;;7.03;;
75135;SDS011;63707;52.212;9.540;2023-03-02T03:22:33;16.30;;;7.20;;
75135;SDS011;63707;52.212;9.540;2023-03-02T03:24:59;16.98;;;7.60;;
75135;SDS011;63707;52.212;9.540;2023-03-02T03:27:25;18.95;;;8.40;;
75135;SDS011;63707;52.212;9.540;2023-03-02T03:29:50;27.45;;;9.57;;
75135;SDS011;63707;52.212;9.540;2023-03-02T03:32:16;18.23;;;8.02;;
75135;SDS011;63707;52.212;9.540;2023-03-02T03:34:44;21.23;;;8.07;;
75135;SDS011;63707;52.212;9.540;2023-03-02T03:37:11;18.75;;;8.25;;
75135;SDS011;63707;52.212;9.540;2023-03-02T03:39:38;15.73;;;7.68;;
75135;SDS011;63707;52.212;9.540;2023-03-02T03:42:04;16.95;;;8.00;;
75135;SDS011;63707;52.212;9.540;2023-03-02T03:44:30;19.48;;;8.02;;
75135;SDS011;63707;52.212;9.540;2023-03-02T03:46:56;17.92;;;8.30;;
75135;SDS011;63707;52.212;9.540;2023-03-02T03:49:21;18.35;;;7.88;;
75135;SDS011;63707;52.212;9.540;2023-03-02T03:51:48;16.38;;;8.43;;
75135;SDS011;63707;52.212;9.540;2023-03-02T03:54:14;22.92;;;8.35;;
75135;SDS011;63707;52.212;9.540;2023-03-02T03:56:41;20.55;;;8.82;;
75135;SDS011;63707;52.212;9.540;2023-03-02T03:59:09;20.95;;;8.13;;
75135;SDS011;63707;52.212;9.540;2023-03-02T04:01:38;16.80;;;7.75;;
75135;SDS011;63707;52.212;9.540;2023-03-02T04:04:06;18.67;;;8.05;;
75135;SDS011;63707;52.212;9.540;2023-03-02T04:06:35;18.42;;;8.40;;
75135;SDS011;63707;52.212;9.540;2023-03-02T04:09:02;22.20;;;8.55;;
75135;SDS011;63707;52.212;9.540;2023-03-02T04:11:29;19.20;;;8.23;;
75135;SDS011;63707;52.212;9.540;2023-03-02T04:13:55;22.98;;;9.30;;
75135;SDS011;63707;52.212;9.540;2023-03-02T04:16:20;20.08;;;9.40;;
75135;SDS011;63707;52.212;9.540;2023-03-02T04:18:46;20.77;;;9.93;;
75135;SDS011;63707;52.212;9.540;2023-03-02T04:21:11;19.02;;;9.10;;
75135;SDS011;63707;52.212;9.540;2023-03-02T04:23:37;23.27;;;10.10;;
75135;SDS011;63707;52.212;9.540;2023-03-02T04:26:04;19.75;;;9.13;;
75135;SDS011;63707;52.212;9.540;2023-03-02T04:28:29;23.90;;;9.80;;
75135;SDS011;63707;52.212;9.540;2023-03-02T04:30:55;30.45;;;10.43;;
75135;SDS011;63707;52.212;9.540;2023-03-02T04:33:20;23.85;;;10.32;;
75135;SDS011;63707;52.212;9.540;2023-03-02T04:35:46;27.02;;;10.68;;
75135;SDS011;63707;52.212;9.540;2023-03-02T04:38:12;22.45;;;10.20;;
75135;SDS011;63707;52.212;9.540;2023-03-02T04:40:38;24.10;;;10.90;;
75135;SDS011;63707;52.212;9.540;2023-03-02T04:43:05;23.60;;;10.93;;
75135;SDS011;63707;52.212;9.540;2023-03-02T04:45:31;24.33;;;10.85;;
75135;SDS011;63707;52.212;9.540;2023-03-02T04:47:56;27.08;;;11.15;;
75135;SDS011;63707;52.212;9.540;2023-03-02T04:50:22;26.73;;;10.68;;
75135;SDS011;63707;52.212;9.540;2023-03-02T04:52:48;29.33;;;11.77;;
75135;SDS011;63707;52.212;9.540;2023-03-02T04:55:18;30.73;;;11.93;;
75135;SDS011;63707;52.212;9.540;2023-03-02T04:57:45;29.55;;;13.32;;
75135;SDS011;63707;52.212;9.540;2023-03-02T05:00:13;27.10;;;11.88;;
75135;SDS011;63707;52.212;9.540;2023-03-02T05:02:40;31.70;;;13.02;;
75135;SDS011;63707;52.212;9.540;2023-03-02T05:05:06;32.13;;;13.32;;
75135;SDS011;63707;52.212;9.540;2023-03-02T05:07:37;30.77;;;12.63;;
75135;SDS011;63707;52.212;9.540;2023-03-02T05:10:03;37.55;;;13.82;;
75135;SDS011;63707;52.212;9.540;2023-03-02T05:12:28;37.45;;;15.07;;
75135;SDS011;63707;52.212;9.540;2023-03-02T05:14:54;34.13;;;14.75;;
75135;SDS011;63707;52.212;9.540;2023-03-02T05:17:21;38.63;;;14.95;;
75135;SDS011;63707;52.212;9.540;2023-03-02T05:19:46;43.08;;;16.92;;
75135;SDS011;63707;52.212;9.540;2023-03-02T05:22:12;40.03;;;16.02;;
75135;SDS011;63707;52.212;9.540;2023-03-02T05:24:37;38.85;;;15.07;;
75135;SDS011;63707;52.212;9.540;2023-03-02T05:27:03;44.35;;;15.88;;
75135;SDS011;63707;52.212;9.540;2023-03-02T05:29:28;39.03;;;15.65;;
75135;SDS011;63707;52.212;9.540;2023-03-02T05:31:54;36.45;;;15.95;;
75135;SDS011;63707;52.212;9.540;2023-03-02T05:34:21;45.05;;;17.45;;
75135;SDS011;63707;52.212;9.540;2023-03-02T05:36:46;46.67;;;17.95;;
75135;SDS011;63707;52.212;9.540;2023-03-02T05:39:12;48.28;;;17.65;;
75135;SDS011;63707;52.212;9.540;2023-03-02T05:41:38;63.78;;;22.55;;
75135;SDS011;63707;52.212;9.540;2023-03-02T05:44:04;57.10;;;19.98;;
75135;SDS011;63707;52.212;9.540;2023-03-02T05:46:33;70.15;;;23.15;;
75135;SDS011;63707;52.212;9.540;2023-03-02T05:48:59;68.43;;;22.65;;
75135;SDS011;63707;52.212;9.540;2023-03-02T05:51:26;62.53;;;22.90;;
75135;SDS011;63707;52.212;9.540;2023-03-02T05:53:51;82.70;;;26.60;;
75135;SDS011;63707;52.212;9.540;2023-03-02T05:56:17;89.40;;;26.42;;
75135;SDS011;63707;52.212;9.540;2023-03-02T05:58:44;85.55;;;27.40;;
75135;SDS011;63707;52.212;9.540;2023-03-02T06:01:10;88.30;;;27.60;;
75135;SDS011;63707;52.212;9.540;2023-03-02T06:03:36;95.45;;;29.33;;
75135;SDS011;63707;52.212;9.540;2023-03-02T06:06:01;86.05;;;27.35;;
75135;SDS011;63707;52.212;9.540;2023-03-02T06:08:28;99.05;;;29.45;;
75135;SDS011;63707;52.212;9.540;2023-03-02T06:10:54;99.05;;;28.50;;
75135;SDS011;63707;52.212;9.540;2023-03-02T06:13:19;104.55;;;29.75;;
75135;SDS011;63707;52.212;9.540;2023-03-02T06:15:45;116.38;;;30.33;;
75135;SDS011;63707;52.212;9.540;2023-03-02T06:18:10;108.20;;;29.27;;
75135;SDS011;63707;52.212;9.540;2023-03-02T06:20:36;105.65;;;29.38;;
75135;SDS011;63707;52.212;9.540;2023-03-02T06:23:02;111.88;;;31.00;;
75135;SDS011;63707;52.212;9.540;2023-03-02T06:25:29;128.63;;;30.65;;
75135;SDS011;63707;52.212;9.540;2023-03-02T06:27:55;101.63;;;31.25;;
75135;SDS011;63707;52.212;9.540;2023-03-02T06:30:21;103.63;;;30.83;;
75135;SDS011;63707;52.212;9.540;2023-03-02T06:32:48;96.05;;;27.98;;
75135;SDS011;63707;52.212;9.540;2023-03-02T06:35:14;99.07;;;29.35;;
75135;SDS011;63707;52.212;9.540;2023-03-02T06:37:39;99.80;;;29.10;;
75135;SDS011;63707;52.212;9.540;2023-03-02T06:40:06;83.35;;;28.00;;
75135;SDS011;63707;52.212;9.540;2023-03-02T06:42:37;96.03;;;28.25;;
75135;SDS011;63707;52.212;9.540;2023-03-02T06:45:04;84.72;;;25.75;;
75135;SDS011;63707;52.212;9.540;2023-03-02T06:47:31;83.25;;;25.30;;
75135;SDS011;63707;52.212;9.540;2023-03-02T06:49:57;74.07;;;25.08;;
75135;SDS011;63707;52.212;9.540;2023-03-02T06:52:22;88.72;;;25.75;;
75135;SDS011;63707;52.212;9.540;2023-03-02T06:54:48;78.65;;;26.38;;
75135;SDS011;63707;52.212;9.540;2023-03-02T06:57:13;87.95;;;27.38;;
75135;SDS011;63707;52.212;9.540;2023-03-02T06:59:40;94.60;;;29.25;;
75135;SDS011;63707;52.212;9.540;2023-03-02T07:02:06;91.30;;;27.50;;
75135;SDS011;63707;52.212;9.540;2023-03-02T07:04:33;94.07;;;28.52;;
75135;SDS011;63707;52.212;9.540;2023-03-02T07:06:59;83.50;;;27.05;;
75135;SDS011;63707;52.212;9.540;2023-03-02T07:09:24;88.93;;;27.63;;
75135;SDS011;63707;52.212;9.540;2023-03-02T07:11:50;92.63;;;29.63;;
75135;SDS011;63707;52.212;9.540;2023-03-02T07:14:15;82.05;;;27.48;;
75135;SDS011;63707;52.212;9.540;2023-03-02T07:16:42;89.25;;;26.75;;
75135;SDS011;63707;52.212;9.540;2023-03-02T07:19:09;81.95;;;25.58;;
75135;SDS011;63707;52.212;9.540;2023-03-02T07:21:35;84.75;;;27.33;;
75135;SDS011;63707;52.212;9.540;2023-03-02T07:24:01;83.45;;;26.33;;
75135;SDS011;63707;52.212;9.540;2023-03-02T07:26:26;76.32;;;24.38;;
75135;SDS011;63707;52.212;9.540;2023-03-02T07:28:52;76.72;;;26.15;;
75135;SDS011;63707;52.212;9.540;2023-03-02T07:31:18;67.90;;;23.63;;
75135;SDS011;63707;52.212;9.540;2023-03-02T07:33:45;74.97;;;25.05;;
75135;SDS011;63707;52.212;9.540;2023-03-02T07:36:11;72.30;;;24.75;;
75135;SDS011;63707;52.212;9.540;2023-03-02T07:38:36;75.55;;;24.38;;
75135;SDS011;63707;52.212;9.540;2023-03-02T07:41:04;70.55;;;24.15;;
75135;SDS011;63707;52.212;9.540;2023-03-02T07:43:31;74.20;;;24.25;;
75135;SDS011;63707;52.212;9.540;2023-03-02T07:45:59;59.88;;;20.75;;
75135;SDS011;63707;52.212;9.540;2023-03-02T07:48:25;62.80;;;22.23;;
75135;SDS011;63707;52.212;9.540;2023-03-02T07:50:55;64.35;;;23.70;;
75135;SDS011;63707;52.212;9.540;2023-03-02T07:53:22;72.13;;;23.20;;
75135;SDS011;63707;52.212;9.540;2023-03-02T07:55:47;66.50;;;22.80;;
75135;SDS011;63707;52.212;9.540;2023-03-02T07:58:12;68.07;;;23.27;;
75135;SDS011;63707;52.212;9.540;2023-03-02T08:00:38;67.43;;;22.20;;
75135;SDS011;63707;52.212;9.540;2023-03-02T08:03:03;62.13;;;21.25;;
75135;SDS011;63707;52.212;9.540;2023-03-02T08:05:29;69.70;;;24.63;;
75135;SDS011;63707;52.212;9.540;2023-03-02T08:07:56;59.90;;;21.25;;
75135;SDS011;63707;52.212;9.540;2023-03-02T08:10:22;69.45;;;24.25;;
75135;SDS011;63707;52.212;9.540;2023-03-02T08:12:47;61.00;;;22.25;;
75135;SDS011;63707;52.212;9.540;2023-03-02T08:15:13;61.78;;;21.60;;
75135;SDS011;63707;52.212;9.540;2023-03-02T08:17:38;57.17;;;21.58;;
75135;SDS011;63707;52.212;9.540;2023-03-02T08:20:04;60.45;;;21.45;;
75135;SDS011;63707;52.212;9.540;2023-03-02T08:22:30;54.22;;;20.80;;
75135;SDS011;63707;52.212;9.540;2023-03-02T08:24:57;56.65;;;20.92;;
75135;SDS011;63707;52.212;9.540;2023-03-02T08:27:23;63.88;;;21.92;;
75135;SDS011;63707;52.212;9.540;2023-03-02T08:29:48;60.80;;;21.83;;
75135;SDS011;63707;52.212;9.540;2023-03-02T08:32:14;54.53;;;21.13;;
75135;SDS011;63707;52.212;9.540;2023-03-02T08:34:39;59.03;;;22.50;;
75135;SDS011;63707;52.212;9.540;2023-03-02T08:37:05;54.92;;;20.75;;
75135;SDS011;63707;52.212;9.540;2023-03-02T08:39:30;56.65;;;22.02;;
75135;SDS011;63707;52.212;9.540;2023-03-02T08:41:57;53.63;;;21.23;;
75135;SDS011;63707;52.212;9.540;2023-03-02T08:44:23;51.45;;;20.55;;
75135;SDS011;63707;52.212;9.540;2023-03-02T08:46:48;56.05;;;21.67;;
75135;SDS011;63707;52.212;9.540;2023-03-02T08:49:15;58.17;;;21.42;;
75135;SDS011;63707;52.212;9.540;2023-03-02T08:51:42;56.28;;;20.90;;
75135;SDS011;63707;52.212;9.540;2023-03-02T08:54:08;55.45;;;21.35;;
75135;SDS011;63707;52.212;9.540;2023-03-02T08:56:35;65.22;;;23.13;;
75135;SDS011;63707;52.212;9.540;2023-03-02T08:59:04;63.92;;;23.33;;
75135;SDS011;63707;52.212;9.540;2023-03-02T09:01:33;71.15;;;24.80;;
75135;SDS011;63707;52.212;9.540;2023-03-02T09:03:59;60.13;;;22.25;;
75135;SDS011;63707;52.212;9.540;2023-03-02T09:06:26;52.03;;;21.02;;
75135;SDS011;63707;52.212;9.540;2023-03-02T09:08:52;56.75;;;21.42;;
75135;SDS011;63707;52.212;9.540;2023-03-02T09:11:18;54.95;;;21.92;;
75135;SDS011;63707;52.212;9.540;2023-03-02T09:13:43;59.50;;;22.38;;
75135;SDS011;63707;52.212;9.540;2023-03-02T09:16:11;57.55;;;21.50;;
75135;SDS011;63707;52.212;9.540;2023-03-02T09:18:37;55.83;;;21.10;;
75135;SDS011;63707;52.212;9.540;2023-03-02T09:21:03;57.88;;;21.80;;
75135;SDS011;63707;52.212;9.540;2023-03-02T09:23:29;56.00;;;21.00;;
75135;SDS011;63707;52.212;9.540;2023-03-02T09:25:54;51.97;;;21.38;;
75135;SDS011;63707;52.212;9.540;2023-03-02T09:28:20;53.47;;;19.55;;
75135;SDS011;63707;52.212;9.540;2023-03-02T09:30:49;59.00;;;22.52;;
75135;SDS011;63707;52.212;9.540;2023-03-02T09:33:16;53.83;;;21.40;;
75135;SDS011;63707;52.212;9.540;2023-03-02T09:35:42;51.63;;;20.90;;
75135;SDS011;63707;52.212;9.540;2023-03-02T09:38:09;52.30;;;20.23;;
75135;SDS011;63707;52.212;9.540;2023-03-02T09:40:40;46.70;;;20.05;;
75135;SDS011;63707;52.212;9.540;2023-03-02T09:43:26;46.92;;;19.08;;
75135;SDS011;63707;52.212;9.540;2023-03-02T09:46:05;53.08;;;19.90;;
75135;SDS011;63707;52.212;9.540;2023-03-02T09:48:48;50.83;;;20.67;;
75135;SDS011;63707;52.212;9.540;2023-03-02T09:51:26;52.95;;;20.80;;
75135;SDS011;63707;52.212;9.540;2023-03-02T09:53:59;52.97;;;21.83;;
75135;SDS011;63707;52.212;9.540;2023-03-02T09:56:33;51.38;;;20.98;;
75135;SDS011;63707;52.212;9.540;2023-03-02T09:59:02;50.08;;;19.73;;
75135;SDS011;63707;52.212;9.540;2023-03-02T10:01:36;57.15;;;22.23;;
75135;SDS011;63707;52.212;9.540;2023-03-02T10:04:08;54.00;;;22.13;;
75135;SDS011;63707;52.212;9.540;2023-03-02T10:06:41;55.40;;;20.38;;
75135;SDS011;63707;52.212;9.540;2023-03-02T10:09:07;58.22;;;23.20;;
75135;SDS011;63707;52.212;9.540;2023-03-02T10:11:36;58.10;;;21.38;;
75135;SDS011;63707;52.212;9.540;2023-03-02T10:14:14;56.00;;;21.10;;
75135;SDS011;63707;52.212;9.540;2023-03-02T10:16:45;54.17;;;20.08;;
75135;SDS011;63707;52.212;9.540;2023-03-02T10:19:15;52.85;;;21.02;;
75135;SDS011;63707;52.212;9.540;2023-03-02T10:21:50;48.72;;;20.40;;
75135;SDS011;63707;52.212;9.540;2023-03-02T10:24:23;52.13;;;20.40;;
75135;SDS011;63707;52.212;9.540;2023-03-02T10:26:57;54.83;;;20.73;;
75135;SDS011;63707;52.212;9.540;2023-03-02T10:29:28;59.92;;;21.80;;
75135;SDS011;63707;52.212;9.540;2023-03-02T10:32:03;48.58;;;20.45;;
75135;SDS011;63707;52.212;9.540;2023-03-02T10:34:40;50.45;;;20.38;;
75135;SDS011;63707;52.212;9.540;2023-03-02T10:37:08;48.88;;;19.58;;
75135;SDS011;63707;52.212;9.540;2023-03-02T10:39:37;41.60;;;16.88;;
75135;SDS011;63707;52.212;9.540;2023-03-02T10:42:03;47.65;;;20.08;;
75135;SDS011;63707;52.212;9.540;2023-03-02T10:44:30;43.42;;;17.20;;
75135;SDS011;63707;52.212;9.540;2023-03-02T10:47:02;46.78;;;19.80;;
75135;SDS011;63707;52.212;9.540;2023-03-02T10:49:29;48.35;;;18.17;;
75135;SDS011;63707;52.212;9.540;2023-03-02T10:51:58;47.88;;;19.60;;
75135;SDS011;63707;52.212;9.540;2023-03-02T10:54:25;45.78;;;19.38;;
75135;SDS011;63707;52.212;9.540;2023-03-02T10:56:53;48.90;;;18.95;;
75135;SDS011;63707;52.212;9.540;2023-03-02T10:59:32;47.97;;;19.73;;
75135;SDS011;63707;52.212;9.540;2023-03-02T11:02:11;43.05;;;17.83;;
75135;SDS011;63707;52.212;9.540;2023-03-02T11:04:40;44.83;;;17.40;;
75135;SDS011;63707;52.212;9.540;2023-03-02T11:07:15;42.83;;;17.95;;
75135;SDS011;63707;52.212;9.540;2023-03-02T11:09:42;42.33;;;19.25;;
75135;SDS011;63707;52.212;9.540;2023-03-02T11:12:11;38.40;;;18.20;;
75135;SDS011;63707;52.212;9.540;2023-03-02T11:14:39;43.15;;;17.92;;
75135;SDS011;63707;52.212;9.540;2023-03-02T11:17:18;40.30;;;17.50;;
75135;SDS011;63707;52.212;9.540;2023-03-02T11:19:52;41.60;;;18.30;;
75135;SDS011;63707;52.212;9.540;2023-03-02T11:22:27;41.17;;;17.52;;
75135;SDS011;63707;52.212;9.540;2023-03-02T11:24:58;43.33;;;17.73;;
75135;SDS011;63707;52.212;9.540;2023-03-02T11:27:27;40.97;;;17.60;;
75135;SDS011;63707;52.212;9.540;2023-03-02T11:29:58;38.65;;;16.95;;
75135;SDS011;63707;52.212;9.540;2023-03-02T11:32:28;33.63;;;15.77;;
75135;SDS011;63707;52.212;9.540;2023-03-02T11:34:59;38.05;;;18.05;;
75135;SDS011;63707;52.212;9.540;2023-03-02T11:37:33;35.75;;;17.70;;
75135;SDS011;63707;52.212;9.540;2023-03-02T11:40:04;33.58;;;16.55;;
75135;SDS011;63707;52.212;9.540;2023-03-02T11:42:42;33.60;;;17.45;;
75135;SDS011;63707;52.212;9.540;2023-03-02T11:45:14;34.25;;;18.75;;
75135;SDS011;63707;52.212;9.540;2023-03-02T11:47:45;32.97;;;16.52;;
75135;SDS011;63707;52.212;9.540;2023-03-02T11:50:14;35.35;;;18.15;;
75135;SDS011;63707;52.212;9.540;2023-03-02T11:52:43;32.50;;;17.23;;
75135;SDS011;63707;52.212;9.540;2023-03-02T11:55:13;31.92;;;18.67;;
75135;SDS011;63707;52.212;9.540;2023-03-02T11:57:43;31.73;;;17.38;;
75135;SDS011;63707;52.212;9.540;2023-03-02T12:00:17;30.13;;;17.17;;
75135;SDS011;63707;52.212;9.540;2023-03-02T12:02:58;31.10;;;18.10;;
75135;SDS011;63707;52.212;9.540;2023-03-02T12:05:29;31.63;;;17.45;;
75135;SDS011;63707;52.212;9.540;2023-03-02T12:08:01;29.92;;;17.80;;
75135;SDS011;63707;52.212;9.540;2023-03-02T12:10:33;32.10;;;18.00;;
75135;SDS011;63707;52.212;9.540;2023-03-02T12:13:06;32.53;;;18.45;;
75135;SDS011;63707;52.212;9.540;2023-03-02T12:15:38;29.02;;;17.00;;
75135;SDS011;63707;52.212;9.540;2023-03-02T12:18:15;31.08;;;17.98;;
75135;SDS011;63707;52.212;9.540;2023-03-02T12:20:59;31.35;;;18.88;;
75135;SDS011;63707;52.212;9.540;2023-03-02T12:23:29;33.53;;;19.45;;
75135;SDS011;63707;52.212;9.540;2023-03-02T12:26:00;32.78;;;19.38;;
75135;SDS011;63707;52.212;9.540;2023-03-02T12:28:29;30.25;;;17.98;;
75135;SDS011;63707;52.212;9.540;2023-03-02T12:31:04;31.92;;;18.80;;
75135;SDS011;63707;52.212;9.540;2023-03-02T12:33:36;31.15;;;19.13;;
75135;SDS011;63707;52.212;9.540;2023-03-02T12:36:09;31.83;;;19.63;;
75135;SDS011;63707;52.212;9.540;2023-03-02T12:38:38;32.05;;;19.90;;
75135;SDS011;63707;52.212;9.540;2023-03-02T12:41:20;32.58;;;19.83;;
75135;SDS011;63707;52.212;9.540;2023-03-02T12:44:00;32.40;;;20.88;;
75135;SDS011;63707;52.212;9.540;2023-03-02T12:46:37;35.15;;;21.35;;
75135;SDS011;63707;52.212;9.540;2023-03-02T12:49:16;33.13;;;21.02;;
75135;SDS011;63707;52.212;9.540;2023-03-02T12:51:52;36.63;;;22.55;;
75135;SDS011;63707;52.212;9.540;2023-03-02T12:54:21;32.70;;;20.70;;
75135;SDS011;63707;52.212;9.540;2023-03-02T12:56:48;35.10;;;20.77;;
75135;SDS011;63707;52.212;9.540;2023-03-02T12:59:21;33.88;;;21.50;;
75135;SDS011;63707;52.212;9.540;2023-03-02T13:01:49;38.42;;;21.67;;
75135;SDS011;63707;52.212;9.540;2023-03-02T13:04:19;35.85;;;20.85;;
75135;SDS011;63707;52.212;9.540;2023-03-02T13:06:46;30.27;;;17.80;;
75135;SDS011;63707;52.212;9.540;2023-03-02T13:09:11;32.47;;;16.83;;
75135;SDS011;63707;52.212;9.540;2023-03-02T13:11:41;29.35;;;16.80;;
75135;SDS011;63707;52.212;9.540;2023-03-02T13:14:16;35.80;;;17.98;;
75135;SDS011;63707;52.212;9.540;2023-03-02T13:16:51;26.80;;;16.02;;
75135;SDS011;63707;52.212;9.540;2023-03-02T13:19:18;27.60;;;15.32;;
75135;SDS011;63707;52.212;9.540;2023-03-02T13:21:44;26.73;;;14.77;;
75135;SDS011;63707;52.212;9.540;2023-03-02T13:24:23;27.35;;;15.77;;
75135;SDS011;63707;52.212;9.540;2023-03-02T13:26:54;23.55;;;15.15;;
75135;SDS011;63707;52.212;9.540;2023-03-02T13:29:24;26.88;;;15.35;;
75135;SDS011;63707;52.212;9.540;2023-03-02T13:31:50;28.58;;;15.65;;
75135;SDS011;63707;52.212;9.540;2023-03-02T13:34:18;28.73;;;16.40;;
75135;SDS011;63707;52.212;9.540;2023-03-02T13:36:46;29.20;;;16.35;;
75135;SDS011;63707;52.212;9.540;2023-03-02T13:39:16;28.23;;;15.63;;
75135;SDS011;63707;52.212;9.540;2023-03-02T13:41:50;30.25;;;15.90;;
75135;SDS011;63707;52.212;9.540;2023-03-02T13:44:19;32.45;;;17.50;;
75135;SDS011;63707;52.212;9.540;2023-03-02T13:46:47;31.92;;;17.23;;
75135;SDS011;63707;52.212;9.540;2023-03-02T13:49:12;31.10;;;16.45;;
75135;SDS011;63707;52.212;9.540;2023-03-02T13:51:49;33.75;;;16.38;;
75135;SDS011;63707;52.212;9.540;2023-03-02T13:54:24;23.97;;;12.73;;
75135;SDS011;63707;52.212;9.540;2023-03-02T13:56:52;37.50;;;17.55;;
75135;SDS011;63707;52.212;9.540;2023-03-02T13:59:19;37.80;;;19.17;;
75135;SDS011;63707;52.212;9.540;2023-03-02T14:01:46;36.65;;;17.73;;
75135;SDS011;63707;52.212;9.540;2023-03-02T14:04:12;37.63;;;19.08;;
75135;SDS011;63707;52.212;9.540;2023-03-02T14:06:39;37.05;;;19.48;;
75135;SDS011;63707;52.212;9.540;2023-03-02T14:09:04;38.22;;;18.77;;
75135;SDS011;63707;52.212;9.540;2023-03-02T14:11:30;38.67;;;20.10;;
75135;SDS011;63707;52.212;9.540;2023-03-02T14:14:00;35.67;;;18.40;;
75135;SDS011;63707;52.212;9.540;2023-03-02T14:16:28;39.53;;;20.20;;
75135;SDS011;63707;52.212;9.540;2023-03-02T14:18:54;38.53;;;20.30;;
75135;SDS011;63707;52.212;9.540;2023-03-02T14:21:23;43.22;;;20.98;;
75135;SDS011;63707;52.212;9.540;2023-03-02T14:23:50;40.00;;;18.90;;
75135;SDS011;63707;52.212;9.540;2023-03-02T14:26:23;45.63;;;20.90;;
75135;SDS011;63707;52.212;9.540;2023-03-02T14:28:55;44.17;;;21.13;;
75135;SDS011;63707;52.212;9.540;2023-03-02T14:31:21;47.50;;;21.80;;